createdAt,value
2023-02-08T00:01:48.652Z,99604.22
2023-02-08T00:04:15.265Z,99613.56
2023-02-08T00:06:41.775Z,99620.38
2023-02-08T00:09:08.945Z,99625.44
2023-02-08T00:11:35.495Z,99655.25
2023-02-08T00:14:01.945Z,99655.22
2023-02-08T00:16:28.293Z,99656.94
2023-02-08T00:18:54.688Z,99651.78
2023-02-08T00:21:21.064Z,99665.41
2023-02-08T00:23:47.524Z,99665.38
2023-02-08T00:26:14.965Z,99661.97
2023-02-08T00:28:41.374Z,99655.16
2023-02-08T00:31:07.864Z,99652.56
2023-02-08T00:33:34.373Z,99652.53
2023-02-08T00:36:01.420Z,99631.19
2023-02-08T00:38:28.277Z,99615.84
2023-02-08T00:40:54.907Z,99616.72
2023-02-08T00:43:21.282Z,99610.72
2023-02-08T00:45:47.666Z,99609.84
2023-02-08T00:48:14.058Z,99590.16
2023-02-08T00:50:40.708Z,99573.09
2023-02-08T00:53:07.207Z,99554.38
2023-02-08T00:55:33.583Z,99554.38
2023-02-08T00:57:59.955Z,99555.19
2023-02-08T01:00:26.381Z,99579.03
2023-02-08T01:02:53.053Z,99602.91
2023-02-08T01:05:19.469Z,99608.88
2023-02-08T01:07:45.905Z,99619.97
2023-02-08T01:10:12.900Z,99628.50
2023-02-08T01:12:39.247Z,99633.63
2023-02-08T01:15:06.021Z,99644.66
2023-02-08T01:17:32.412Z,99663.38
2023-02-08T01:19:58.840Z,99661.66
2023-02-08T01:22:25.237Z,99612.19
2023-02-08T01:24:51.942Z,99577.28
2023-02-08T01:27:18.306Z,99573.81
2023-02-08T01:29:44.677Z,99578.09
2023-02-08T01:32:11.249Z,99559.34
2023-02-08T01:34:37.681Z,99563.59
2023-02-08T01:37:04.049Z,99550.81
2023-02-08T01:39:30.506Z,99534.63
2023-02-08T01:41:56.908Z,99533.78
2023-02-08T01:45:00.976Z,99556.81
2023-02-08T01:47:27.591Z,99576.34
2023-02-08T01:49:53.933Z,99593.47
2023-02-08T01:52:22.327Z,99596.00
2023-02-08T01:54:51.349Z,99617.28
2023-02-08T01:57:18.012Z,99618.16
2023-02-08T01:59:47.357Z,99629.25
2023-02-08T02:02:16.320Z,99644.59
2023-02-08T02:04:42.800Z,99677.81
2023-02-08T02:07:09.438Z,99699.00
2023-02-08T02:10:13.336Z,99706.69
2023-02-08T02:12:40.187Z,99722.81
2023-02-08T02:15:07.458Z,99704.91
2023-02-08T02:17:33.844Z,99714.28
2023-02-08T02:20:23.026Z,99712.56
2023-02-08T02:23:07.740Z,99712.59
2023-02-08T02:25:37.052Z,99724.56
2023-02-08T02:28:31.411Z,99736.38
2023-02-08T02:31:16.823Z,99708.28
2023-02-08T02:33:54.504Z,99715.03
2023-02-08T02:36:39.870Z,99707.34
2023-02-08T02:39:27.386Z,99731.22
2023-02-08T02:42:48.680Z,99758.41
2023-02-08T02:45:18.306Z,99729.56
2023-02-08T02:48:13.365Z,99707.41
2023-02-08T02:50:58.060Z,99706.50
2023-02-08T02:53:43.457Z,99726.03
2023-02-08T02:56:12.610Z,99743.91
2023-02-08T02:58:39.645Z,99755.81
2023-02-08T03:01:06.047Z,99755.00
2023-02-08T03:03:34.157Z,99753.31
2023-02-08T03:06:21.952Z,99770.34
2023-02-08T03:08:57.450Z,99770.34
2023-02-08T03:11:37.056Z,99772.91
2023-02-08T03:14:28.281Z,99785.69
2023-02-08T03:17:09.014Z,99783.94
2023-02-08T03:19:54.039Z,99748.09
2023-02-08T03:22:23.648Z,99773.66
2023-02-08T03:25:07.966Z,99790.66
2023-02-08T03:27:36.349Z,99816.16
2023-02-08T03:30:24.519Z,99821.28
2023-02-08T03:32:55.333Z,99830.63
2023-02-08T03:35:34.528Z,99833.16
2023-02-08T03:38:10.114Z,99829.81
2023-02-08T03:40:42.210Z,99827.25
2023-02-08T03:43:18.803Z,99841.72
2023-02-08T03:45:57.692Z,99856.16
2023-02-08T03:48:24.293Z,99868.91
2023-02-08T03:50:51.812Z,99885.06
2023-02-08T03:53:20.702Z,99894.44
2023-02-08T03:55:47.784Z,99887.59
2023-02-08T03:58:23.919Z,99887.59
2023-02-08T04:00:58.541Z,99872.31
2023-02-08T04:03:26.834Z,99857.00
2023-02-08T04:05:53.191Z,99845.97
2023-02-08T04:08:19.843Z,99842.59
2023-02-08T04:10:46.412Z,99830.72
2023-02-08T04:13:12.765Z,99834.13
2023-02-08T04:15:39.175Z,99835.00
2023-02-08T04:18:05.632Z,99865.59
2023-02-08T04:20:32.033Z,99891.13
2023-02-08T04:22:58.595Z,99905.56
2023-02-08T04:25:24.939Z,99930.16
2023-02-08T04:27:51.362Z,99933.63
2023-02-08T04:30:18.108Z,99906.34
2023-02-08T04:32:44.450Z,99882.44
2023-02-08T04:35:11.059Z,99863.72
2023-02-08T04:37:37.422Z,99859.47
2023-02-08T04:40:04.209Z,99884.09
2023-02-08T04:42:30.636Z,99884.09
2023-02-08T04:44:57.140Z,99884.09
2023-02-08T04:47:23.683Z,99865.44
2023-02-08T04:49:50.024Z,99826.28
2023-02-08T04:52:16.636Z,99782.81
2023-02-08T04:54:43.012Z,99739.47
2023-02-08T04:57:12.876Z,99695.19
2023-02-08T04:59:39.510Z,99668.00
2023-02-08T05:02:05.960Z,99633.94
2023-02-08T05:04:33.163Z,99622.06
2023-02-08T05:06:59.531Z,99608.44
2023-02-08T05:09:25.952Z,99584.66
2023-02-08T05:11:52.530Z,99593.16
2023-02-08T05:14:18.893Z,99601.69
2023-02-08T05:16:45.371Z,99606.81
2023-02-08T05:19:12.054Z,99623.81
2023-02-08T05:21:38.389Z,99622.09
2023-02-08T05:24:04.972Z,99623.81
2023-02-08T05:26:31.342Z,99633.25
2023-02-08T05:28:57.710Z,99659.63
2023-02-08T05:31:25.321Z,99674.84
2023-02-08T05:33:52.446Z,99667.25
2023-02-08T05:36:19.258Z,99673.22
2023-02-08T05:38:45.781Z,99682.53
2023-02-08T05:41:12.166Z,99703.81
2023-02-08T05:43:38.726Z,99702.06
2023-02-08T05:46:05.294Z,99710.59
2023-02-08T05:48:32.262Z,99733.56
2023-02-08T05:50:59.450Z,99765.06
2023-02-08T05:53:26.143Z,99780.31
2023-02-08T05:55:52.558Z,99793.91
2023-02-08T05:58:19.085Z,99837.31
2023-02-08T06:00:45.430Z,99852.63
2023-02-08T06:03:11.895Z,99887.47
2023-02-08T06:05:39.079Z,99915.44
2023-02-08T06:08:05.446Z,99916.31
2023-02-08T06:10:32.131Z,99935.03
2023-02-08T06:12:58.513Z,99924.81
2023-02-08T06:15:24.915Z,99918.53
2023-02-08T06:17:51.452Z,99878.63
2023-02-08T06:20:18.034Z,99870.19
2023-02-08T06:22:44.661Z,99899.22
2023-02-08T06:25:11.020Z,99920.53
2023-02-08T06:27:37.469Z,99943.53
2023-02-08T06:30:04.157Z,99964.00
2023-02-08T06:32:30.565Z,99987.81
2023-02-08T06:34:57.186Z,100007.38
2023-02-08T06:37:23.586Z,100047.38
2023-02-08T06:39:49.982Z,100064.38
2023-02-08T06:42:16.409Z,100083.03
2023-02-08T06:44:54.206Z,100103.50
2023-02-08T06:47:25.116Z,100117.03
2023-02-08T06:49:51.899Z,100122.09
2023-02-08T06:52:18.927Z,100121.19
2023-02-08T06:54:45.597Z,100125.44
2023-02-08T06:57:14.894Z,100123.72
2023-02-08T06:59:41.683Z,100111.81
2023-02-08T07:02:18.193Z,100111.84
2023-02-08T07:04:45.565Z,100103.34
2023-02-08T07:07:15.747Z,100109.31
2023-02-08T07:09:42.403Z,100115.38
2023-02-08T07:12:09.123Z,100107.78
2023-02-08T07:14:36.742Z,100104.31
2023-02-08T07:17:03.218Z,100087.41
2023-02-08T07:19:29.619Z,100079.72
2023-02-08T07:21:56.068Z,100076.44
2023-02-08T07:24:24.641Z,100081.63
2023-02-08T07:26:50.990Z,100084.97
2023-02-08T07:29:17.340Z,100083.34
2023-02-08T07:31:43.789Z,100095.22
2023-02-08T07:34:10.191Z,100085.81
2023-02-08T07:36:36.830Z,100077.41
2023-02-08T07:39:03.298Z,100046.03
2023-02-08T07:41:29.665Z,100029.09
2023-02-08T07:43:56.082Z,100013.78
2023-02-08T07:46:22.489Z,100022.31
2023-02-08T07:48:52.770Z,99999.41
2023-02-08T07:51:19.224Z,99983.38
2023-02-08T07:53:45.593Z,99960.41
2023-02-08T07:56:12.058Z,99956.25
2023-02-08T07:58:38.489Z,99952.94
2023-02-08T08:01:21.027Z,99945.31
2023-02-08T08:03:48.572Z,99919.84
2023-02-08T08:06:15.080Z,99901.16
2023-02-08T08:08:42.308Z,99901.28
2023-02-08T08:11:08.938Z,99889.38
2023-02-08T08:13:35.316Z,99871.56
2023-02-08T08:16:01.721Z,99861.41
2023-02-08T08:18:28.312Z,99844.41
2023-02-08T08:20:54.694Z,99824.81
2023-02-08T08:23:21.248Z,99800.16
2023-02-08T08:25:47.627Z,99796.78
2023-02-08T08:28:14.100Z,99779.81
2023-02-08T08:30:44.131Z,99768.75
2023-02-08T08:33:11.284Z,99746.66
2023-02-08T08:35:37.773Z,99727.91
2023-02-08T08:38:04.158Z,99714.34
2023-02-08T08:40:30.705Z,99693.06
2023-02-08T08:42:57.261Z,99664.09
2023-02-08T08:45:23.697Z,99632.53
2023-02-08T08:47:50.121Z,99633.47
2023-02-08T08:50:16.494Z,99614.72
2023-02-08T08:52:43.115Z,99604.50
2023-02-08T08:55:09.468Z,99594.28
2023-02-08T08:57:35.819Z,99587.50
2023-02-08T09:00:02.674Z,99584.19
2023-02-08T09:02:29.141Z,99582.56
2023-02-08T09:04:55.858Z,99561.22
2023-02-08T09:07:22.207Z,99539.03
2023-02-08T09:09:48.585Z,99543.34
2023-02-08T09:12:16.017Z,99524.63
2023-02-08T09:14:44.665Z,99513.56
2023-02-08T09:17:11.960Z,99498.22
2023-02-08T09:19:38.391Z,99490.53
2023-02-08T09:22:06.806Z,99488.88
2023-02-08T09:24:33.856Z,99497.44
2023-02-08T09:27:00.435Z,99478.63
2023-02-08T09:29:29.485Z,99465.88
2023-02-08T09:31:56.319Z,99459.03
2023-02-08T09:34:22.818Z,99439.38
2023-02-08T09:36:49.225Z,99429.16
2023-02-08T09:39:17.988Z,99427.44
2023-02-08T09:41:59.590Z,99441.13
2023-02-08T09:44:31.879Z,99460.88
2023-02-08T09:47:13.558Z,99459.16
2023-02-08T09:50:00.220Z,99465.19
2023-02-08T09:52:32.432Z,99516.59
2023-02-08T09:54:59.891Z,99550.00
2023-02-08T09:57:31.734Z,99579.19
2023-02-08T10:00:07.763Z,99598.94
2023-02-08T10:02:34.518Z,99622.06
2023-02-08T10:05:20.081Z,99640.09
2023-02-08T10:07:46.456Z,99678.69
2023-02-08T10:10:20.567Z,99700.16
2023-02-08T10:12:50.645Z,99722.50
2023-02-08T10:15:29.295Z,99729.38
2023-02-08T10:18:01.088Z,99755.97
2023-02-08T10:20:39.529Z,99784.25
2023-02-08T10:23:24.492Z,99821.19
2023-02-08T10:26:08.752Z,99866.69
2023-02-08T10:28:42.472Z,99900.19
2023-02-08T10:31:21.576Z,99950.91
2023-02-08T10:33:55.761Z,100010.19
2023-02-08T10:36:24.621Z,100057.50
2023-02-08T10:38:51.716Z,100091.91
2023-02-08T10:41:23.422Z,100100.50
2023-02-08T10:44:19.931Z,100138.31
2023-02-08T10:47:06.999Z,100152.97
2023-02-08T10:49:42.504Z,100190.81
2023-02-08T10:52:08.957Z,100277.72
2023-02-08T10:54:35.889Z,100312.16
2023-02-08T10:57:04.408Z,100341.47
2023-02-08T10:59:43.022Z,100407.75
2023-02-08T11:02:22.817Z,100405.28
2023-02-08T11:05:01.282Z,100440.63
2023-02-08T11:07:27.797Z,100505.28
2023-02-08T11:09:54.187Z,100610.53
2023-02-08T11:12:21.667Z,100729.38
2023-02-08T11:14:50.554Z,100745.75
2023-02-08T11:17:29.982Z,100875.03
2023-02-08T11:19:56.533Z,101024.50
2023-02-08T11:22:24.275Z,101100.53
2023-02-08T11:25:01.848Z,101231.13
2023-02-08T11:27:28.189Z,101371.69
2023-02-08T11:30:12.980Z,101381.28
2023-02-08T11:32:40.343Z,101397.78
2023-02-08T11:35:21.789Z,101465.34
2023-02-08T11:37:51.914Z,101428.94
2023-02-08T11:40:21.594Z,101525.66
2023-02-08T11:42:48.261Z,101537.91
2023-02-08T11:45:22.400Z,101587.31
2023-02-08T11:47:48.850Z,101578.84
2023-02-08T11:50:30.704Z,101669.88
2023-02-08T11:53:39.787Z,101682.91
2023-02-08T11:56:07.633Z,101792.44
2023-02-08T11:58:34.080Z,101790.63
2023-02-08T12:01:05.834Z,101836.47
2023-02-08T12:03:39.136Z,101791.84
2023-02-08T12:06:29.329Z,101838.91
2023-02-08T12:09:11.527Z,101903.25
2023-02-08T12:11:39.018Z,101949.78
2023-02-08T12:14:26.320Z,102018.38
2023-02-08T12:17:16.917Z,102060.09
2023-02-08T12:20:01.814Z,102159.28
2023-02-08T12:22:29.333Z,102180.03
2023-02-08T12:25:13.487Z,102219.13
2023-02-08T12:28:06.997Z,102279.25
2023-02-08T12:30:43.494Z,102358.09
2023-02-08T12:33:14.538Z,102398.09
2023-02-08T12:36:05.270Z,102373.66
2023-02-08T12:38:56.606Z,102401.19
2023-02-08T12:41:30.108Z,102389.56
2023-02-08T12:44:41.171Z,102426.22
2023-02-08T12:47:31.825Z,102438.72
2023-02-08T12:50:20.481Z,102436.16
2023-02-08T12:52:51.982Z,102394.69
2023-02-08T12:55:28.433Z,102365.13
2023-02-08T12:57:57.963Z,102355.75
2023-02-08T13:00:29.754Z,102361.78
2023-02-08T13:03:02.185Z,102327.56
2023-02-08T13:05:31.917Z,102305.13
2023-02-08T13:08:30.627Z,102293.84
2023-02-08T13:11:18.913Z,102254.19
2023-02-08T13:13:51.233Z,102300.75
2023-02-08T13:16:23.284Z,102315.13
2023-02-08T13:19:21.836Z,102298.56
2023-02-08T13:21:48.476Z,102261.13
2023-02-08T13:24:22.029Z,102214.50
2023-02-08T13:26:48.396Z,102217.88
2023-02-08T13:29:17.750Z,102191.78
2023-02-08T13:31:46.794Z,102226.50
2023-02-08T13:34:16.120Z,102198.03
2023-02-08T13:36:51.657Z,102154.16
2023-02-08T13:39:48.364Z,102230.38
2023-02-08T13:42:42.564Z,102254.63
2023-02-08T13:45:10.198Z,102232.38
2023-02-08T13:47:44.992Z,102210.00
2023-02-08T13:50:48.133Z,102207.50
2023-02-08T13:53:15.364Z,102185.72
2023-02-08T13:55:56.084Z,102137.31
2023-02-08T13:58:48.937Z,102108.34
2023-02-08T14:01:23.075Z,102083.94
2023-02-08T14:04:08.177Z,102085.84
2023-02-08T14:06:36.721Z,102136.06
2023-02-08T14:09:13.200Z,102220.75
2023-02-08T14:11:46.176Z,102236.09
2023-02-08T14:14:17.911Z,102189.47
2023-02-08T14:16:45.325Z,102170.94
2023-02-08T14:19:18.281Z,102119.84
2023-02-08T14:21:46.709Z,102083.19
2023-02-08T14:25:01.754Z,101998.56
2023-02-08T14:27:31.706Z,101988.88
2023-02-08T14:29:58.758Z,101963.28
2023-02-08T14:32:26.052Z,101951.53
2023-02-08T14:35:00.097Z,101963.91
2023-02-08T14:37:29.148Z,101965.59
2023-02-08T14:40:22.909Z,101918.09
2023-02-08T14:42:55.307Z,101861.75
2023-02-08T14:45:34.752Z,101825.09
2023-02-08T14:48:21.243Z,101720.06
2023-02-08T14:51:10.208Z,101709.69
2023-02-08T14:53:42.857Z,101708.72
2023-02-08T14:56:29.775Z,101712.19
2023-02-08T14:59:09.298Z,101699.44
2023-02-08T15:01:48.866Z,101693.22
2023-02-08T15:04:18.344Z,101661.88
2023-02-08T15:07:03.178Z,101601.94
2023-02-08T15:09:30.077Z,101561.25
2023-02-08T15:12:08.483Z,101504.19
2023-02-08T15:14:35.946Z,101454.97
2023-02-08T15:17:02.351Z,101423.75
2023-02-08T15:19:38.477Z,101442.81
2023-02-08T15:22:23.792Z,101459.09
2023-02-08T15:25:01.790Z,101485.75
2023-02-08T15:27:30.040Z,101489.19
2023-02-08T15:29:56.426Z,101489.84
2023-02-08T15:32:24.066Z,101461.19
2023-02-08T15:34:56.719Z,101408.22
2023-02-08T15:37:23.139Z,101314.91
2023-02-08T15:39:54.890Z,101238.88
2023-02-08T15:42:29.528Z,101143.97
2023-02-08T15:44:56.118Z,101068.16
2023-02-08T15:47:33.508Z,101013.00
2023-02-08T15:49:59.899Z,100967.19
2023-02-08T15:52:28.541Z,100902.41
2023-02-08T15:54:54.934Z,100818.03
2023-02-08T15:57:22.852Z,100767.97
2023-02-08T15:59:49.251Z,100726.56
2023-02-08T16:02:31.633Z,100671.41
2023-02-08T16:04:58.801Z,100624.06
2023-02-08T16:07:31.724Z,100590.47
2023-02-08T16:09:58.246Z,100555.97
2023-02-08T16:12:28.087Z,100509.41
2023-02-08T16:14:57.812Z,100471.50
2023-02-08T16:17:53.723Z,100436.97
2023-02-08T16:20:40.396Z,100395.59
2023-02-08T16:23:25.084Z,100346.50
2023-02-08T16:25:51.483Z,100305.16
2023-02-08T16:28:31.613Z,100267.28
2023-02-08T16:31:02.232Z,100239.75
2023-02-08T16:33:29.033Z,100217.44
2023-02-08T16:36:01.771Z,100205.28
2023-02-08T16:38:33.764Z,100179.53
2023-02-08T16:41:12.080Z,100158.06
2023-02-08T16:43:43.832Z,100155.44
2023-02-08T16:46:16.581Z,100140.00
2023-02-08T16:49:04.015Z,100127.94
2023-02-08T16:51:34.443Z,100115.84
2023-02-08T16:54:07.340Z,100101.28
2023-02-08T16:56:37.337Z,100099.53
2023-02-08T16:59:04.117Z,100102.06
2023-02-08T17:01:31.861Z,100091.75
2023-02-08T17:03:58.363Z,100084.81
2023-02-08T17:06:31.455Z,100074.50
2023-02-08T17:08:58.673Z,100062.41
2023-02-08T17:11:25.520Z,100062.44
2023-02-08T17:13:52.322Z,100064.94
2023-02-08T17:16:23.678Z,100053.78
2023-02-08T17:18:50.160Z,100036.50
2023-02-08T17:21:16.884Z,100009.91
2023-02-08T17:23:43.466Z,100006.47
2023-02-08T17:26:12.411Z,99979.88
2023-02-08T17:28:38.814Z,99973.84
2023-02-08T17:31:05.346Z,99962.66
2023-02-08T17:33:36.425Z,99962.66
2023-02-08T17:36:03.047Z,99953.19
2023-02-08T17:38:29.449Z,99949.72
2023-02-08T17:40:55.884Z,99950.59
2023-02-08T17:43:23.173Z,99953.97
2023-02-08T17:45:49.578Z,99969.41
2023-02-08T17:48:16.121Z,99966.78
2023-02-08T17:50:43.954Z,99941.00
2023-02-08T17:53:10.726Z,99902.38
2023-02-08T17:55:37.111Z,99868.91
2023-02-08T17:58:03.536Z,99824.34
2023-02-08T18:00:29.979Z,99827.81
2023-02-08T18:02:57.937Z,99826.97
2023-02-08T18:05:26.369Z,99843.19
2023-02-08T18:07:53.630Z,99859.50
2023-02-08T18:10:20.109Z,99902.47
2023-02-08T18:12:46.585Z,99959.09
2023-02-08T18:15:15.347Z,99989.91
2023-02-08T18:17:42.015Z,100029.38
2023-02-08T18:20:09.038Z,100039.69
2023-02-08T18:22:36.587Z,100053.41
2023-02-08T18:25:03.157Z,100073.13
2023-02-08T18:27:30.134Z,100097.22
2023-02-08T18:29:56.516Z,100121.22
2023-02-08T18:32:23.156Z,100132.38
2023-02-08T18:34:49.582Z,100145.25
2023-02-08T18:37:16.121Z,100116.03
2023-02-08T18:39:42.530Z,100098.03
2023-02-08T18:42:09.268Z,100058.63
2023-02-08T18:44:38.379Z,100033.75
2023-02-08T18:47:05.527Z,100014.03
2023-02-08T18:49:32.006Z,99994.34
2023-02-08T18:51:58.550Z,99982.31
2023-02-08T18:54:24.953Z,99964.25
2023-02-08T18:56:53.738Z,99962.53
2023-02-08T18:59:20.198Z,99954.88
2023-02-08T19:01:46.700Z,99959.13
2023-02-08T19:04:13.152Z,99947.09
2023-02-08T19:06:39.508Z,99963.41
2023-02-08T19:09:06.892Z,99958.28
2023-02-08T19:11:36.490Z,99972.88
2023-02-08T19:14:04.982Z,99983.19
2023-02-08T19:16:32.391Z,99992.63
2023-02-08T19:19:01.722Z,100010.63
2023-02-08T19:21:28.579Z,100035.50
2023-02-08T19:23:54.966Z,100029.47
2023-02-08T19:26:23.583Z,100041.44
2023-02-08T19:28:50.429Z,100028.59
2023-02-08T19:31:18.913Z,100029.47
2023-02-08T19:33:46.529Z,100040.59
2023-02-08T19:36:15.015Z,100049.97
2023-02-08T19:38:41.475Z,100050.88
2023-02-08T19:41:08.340Z,100068.03
2023-02-08T19:43:34.797Z,100066.31
2023-02-08T19:46:01.315Z,100085.16
2023-02-08T19:48:27.810Z,100117.72
2023-02-08T19:50:58.277Z,100125.50
2023-02-08T19:53:24.866Z,100142.63
2023-02-08T19:55:58.992Z,100137.47
2023-02-08T19:58:25.640Z,100144.28
2023-02-08T20:00:52.107Z,100129.66
2023-02-08T20:03:22.044Z,100132.25
2023-02-08T20:05:48.989Z,100120.22
2023-02-08T20:08:15.561Z,100115.88
2023-02-08T20:10:43.169Z,100125.31
2023-02-08T20:13:10.368Z,100127.94
2023-02-08T20:15:37.475Z,100131.34
2023-02-08T20:18:04.284Z,100153.72
2023-02-08T20:20:30.734Z,100170.84
2023-02-08T20:22:57.105Z,100173.44
2023-02-08T20:25:23.528Z,100173.28
2023-02-08T20:27:50.024Z,100144.09
2023-02-08T20:30:17.483Z,100121.84
2023-02-08T20:32:44.838Z,100127.00
2023-02-08T20:35:11.526Z,100138.19
2023-02-08T20:37:37.885Z,100137.31
2023-02-08T20:40:04.677Z,100128.72
2023-02-08T20:42:31.076Z,100137.28
2023-02-08T20:44:57.480Z,100159.63
2023-02-08T20:47:23.843Z,100166.50
2023-02-08T20:49:50.334Z,100157.91
2023-02-08T20:52:17.538Z,100136.38
2023-02-08T20:54:44.707Z,100119.19
2023-02-08T20:57:13.582Z,100100.25
2023-02-08T20:59:41.011Z,100087.41
2023-02-08T21:02:08.572Z,100086.56
2023-02-08T21:04:35.270Z,100082.22
2023-02-08T21:07:01.633Z,100083.97
2023-02-08T21:09:28.026Z,100091.59
2023-02-08T21:11:57.359Z,100082.00
2023-02-08T21:14:24.265Z,100051.13
2023-02-08T21:16:52.759Z,100027.94
2023-02-08T21:19:20.565Z,100002.31
2023-02-08T21:21:50.424Z,99992.91
2023-02-08T21:24:16.772Z,99992.88
2023-02-08T21:26:43.139Z,99982.53
2023-02-08T21:29:09.572Z,99976.50
2023-02-08T21:31:38.936Z,99979.00
2023-02-08T21:34:05.984Z,99961.84
2023-02-08T21:36:32.522Z,99961.78
2023-02-08T21:38:58.969Z,99954.91
2023-02-08T21:41:30.276Z,99939.50
2023-02-08T21:43:58.382Z,99930.91
2023-02-08T21:46:24.934Z,99956.50
2023-02-08T21:49:10.719Z,99948.72
2023-02-08T21:51:55.471Z,99921.31
2023-02-08T21:54:41.370Z,99901.56
2023-02-08T21:57:29.529Z,99872.41
2023-02-08T21:59:59.609Z,99856.97
2023-02-08T22:02:28.500Z,99847.50
2023-02-08T22:04:56.245Z,99836.31
2023-02-08T22:07:23.374Z,99810.66
2023-02-08T22:09:49.911Z,99787.59
2023-02-08T22:12:23.335Z,99762.78
2023-02-08T22:14:49.773Z,99763.69
2023-02-08T22:17:16.130Z,99756.00
2023-02-08T22:19:42.695Z,99747.47
2023-02-08T22:22:09.498Z,99763.72
2023-02-08T22:24:35.983Z,99776.50
2023-02-08T22:27:02.477Z,99788.47
2023-02-08T22:29:29.152Z,99798.69
2023-02-08T22:31:55.652Z,99810.56
2023-02-08T22:34:22.133Z,99778.97
2023-02-08T22:36:48.552Z,99759.41
2023-02-08T22:39:14.932Z,99738.91
2023-02-08T22:41:41.304Z,99750.03
2023-02-08T22:44:07.726Z,99765.38
2023-02-08T22:46:34.124Z,99786.72
2023-02-08T22:49:00.550Z,99789.28
2023-02-08T22:51:27.012Z,99767.97
2023-02-08T22:53:53.383Z,99765.50
2023-02-08T22:56:19.763Z,99766.41
2023-02-08T22:58:46.292Z,99787.88
2023-02-08T23:01:13.819Z,99828.13
2023-02-08T23:03:40.228Z,99852.97
2023-02-08T23:06:07.545Z,99870.88
2023-02-08T23:08:33.950Z,99855.47
2023-02-08T23:11:02.415Z,99847.72
2023-02-08T23:13:29.148Z,99842.56
2023-02-08T23:15:55.549Z,99843.38
2023-02-08T23:18:22.497Z,99853.56
2023-02-08T23:20:48.946Z,99826.19
2023-02-08T23:23:15.354Z,99813.38
2023-02-08T23:25:41.849Z,99800.53
2023-02-08T23:28:09.282Z,99811.59
2023-02-08T23:30:38.065Z,99814.97
2023-02-08T23:33:04.481Z,99819.16
2023-02-08T23:35:31.077Z,99812.28
2023-02-08T23:37:57.435Z,99772.97
2023-02-08T23:40:23.794Z,99788.28
2023-02-08T23:42:50.437Z,99800.13
2023-02-08T23:45:16.805Z,99811.13
2023-02-08T23:47:43.230Z,99800.75
2023-02-08T23:50:09.989Z,99763.16
2023-02-08T23:52:36.446Z,99748.59
2023-02-08T23:55:02.946Z,99715.25
2023-02-08T23:57:36.337Z,99685.38
